Deming, Washington
Current Conditions -  °F | °C
As of 3:53 PM on Saturday 27 Dec 2014 (Local Time) from KBLI Reporting Station
Clear Clear  
Wind Chill: 46°   Ceiling: Unl
Heat Index: 46°   Visibility: 10mi
Dew Point: 38°   Wind: 0mph
Humidity: 73%   Direction: NA
Pressure: 30.01"   Gusts: NA
Location:  48.83°N, 122.22°W
Report Text: KBLI 272353Z 00000KT 10SM CLR 08/03 A3001 RMK AO2 SLP171 60005 T00780033 10094 20067 52013
Loading
Personal Weather Stations






























Interactive Weather Map New forecast layout! Learn more

10-Day Weather Forecast

Advertisements
Track Severe Weather on mobile